Time;durP1;ratioP1;P1;durP2;ratioP2;P2;SDS_P1;SDS_P2;PMS_P1;PMS_P2;Temp;Humidity;BMP_temperature;BMP_pressure;BME280_temperature;BME280_humidity;BME280_pressure;Samples;Min_cycle;Max_cycle;Signal;HPM_P1;HPM_P2
2023/03/24 00:02:15;;;;;;;14.02;7.10;;;10.70;99.90;;;;;;5053727;28;20068;-71
2023/03/24 00:04:41;;;;;;;17.85;7.43;;;10.70;99.90;;;;;;5055244;28;20017;-70
2023/03/24 00:07:14;;;;;;;16.85;7.18;;;10.70;99.90;;;;;;5053979;28;20052;-68
2023/03/24 00:09:41;;;;;;;14.70;6.78;;;10.60;99.90;;;;;;5053468;28;20025;-68
2023/03/24 00:12:12;;;;;;;22.50;8.18;;;10.60;99.90;;;;;;5055038;28;20056;-69
2023/03/24 00:14:38;;;;;;;13.45;6.47;;;10.60;99.90;;;;;;5055010;28;20051;-69
2023/03/24 00:17:08;;;;;;;19.35;8.00;;;10.60;99.90;;;;;;5054934;28;20077;-69
2023/03/24 00:19:37;;;;;;;17.48;7.03;;;10.60;99.90;;;;;;5053202;28;20075;-70
2023/03/24 00:22:07;;;;;;;14.65;6.50;;;10.60;99.90;;;;;;5053859;28;20036;-70
2023/03/24 00:24:34;;;;;;;19.95;8.02;;;10.60;99.90;;;;;;5052946;28;20029;-71
2023/03/24 00:27:02;;;;;;;13.35;5.60;;;10.60;99.90;;;;;;5053164;28;20067;-71
2023/03/24 00:29:28;;;;;;;16.80;6.97;;;10.50;99.90;;;;;;5052901;28;20017;-69
2023/03/24 00:31:54;;;;;;;19.60;7.22;;;10.50;99.90;;;;;;5054690;28;20024;-68
2023/03/24 00:34:23;;;;;;;16.52;6.80;;;10.50;99.90;;;;;;5055076;28;20017;-68
2023/03/24 00:36:49;;;;;;;25.75;7.45;;;10.50;99.90;;;;;;5054230;28;20401;-69
2023/03/24 00:39:19;;;;;;;20.13;6.45;;;10.50;99.90;;;;;;5053208;28;20028;-69
2023/03/24 00:41:46;;;;;;;18.88;7.50;;;10.50;99.90;;;;;;5054095;28;20036;-69
2023/03/24 00:44:17;;;;;;;18.17;6.60;;;10.50;99.90;;;;;;5053824;28;20044;-71
2023/03/24 00:46:54;;;;;;;24.27;6.72;;;10.50;99.90;;;;;;5052741;28;20020;-69
2023/03/24 00:52:14;;;;;;;15.15;7.00;;;10.40;99.90;;;;;;5053638;28;20075;-70
2023/03/24 00:54:40;;;;;;;27.73;7.72;;;10.40;99.90;;;;;;5052556;28;20052;-70
2023/03/24 00:57:07;;;;;;;20.83;7.32;;;10.40;99.90;;;;;;5053866;28;20025;-69
2023/03/24 00:59:41;;;;;;;21.92;7.55;;;10.40;99.90;;;;;;5050999;28;20029;-68
2023/03/24 01:02:13;;;;;;;20.60;7.97;;;10.40;99.90;;;;;;5053448;28;20017;-73
2023/03/24 01:04:39;;;;;;;19.65;7.93;;;10.40;99.90;;;;;;5053178;28;20033;-72
2023/03/24 01:07:14;;;;;;;17.30;7.28;;;10.30;99.90;;;;;;5053618;28;20037;-68
2023/03/24 01:09:39;;;;;;;22.45;7.03;;;10.30;99.90;;;;;;5052135;28;20085;-71
2023/03/24 01:12:05;;;;;;;25.98;7.60;;;10.30;99.90;;;;;;5052818;28;20037;-70
2023/03/24 01:14:32;;;;;;;17.90;7.60;;;10.30;99.90;;;;;;5052426;28;20033;-70
2023/03/24 01:16:58;;;;;;;18.10;7.93;;;10.30;99.90;;;;;;5053930;28;20037;-71
2023/03/24 01:19:24;;;;;;;12.70;7.15;;;10.30;99.90;;;;;;5053013;28;20032;-70
2023/03/24 01:21:53;;;;;;;19.75;8.43;;;10.30;99.90;;;;;;5053253;28;20080;-70
2023/03/24 01:24:20;;;;;;;19.08;8.25;;;10.30;99.90;;;;;;5053359;28;20552;-72
2023/03/24 01:26:46;;;;;;;20.10;7.60;;;10.30;99.90;;;;;;5053956;28;20029;-70
2023/03/24 01:29:11;;;;;;;20.23;7.70;;;10.30;99.90;;;;;;5052922;28;20021;-71
2023/03/24 01:31:37;;;;;;;18.95;7.60;;;10.20;99.90;;;;;;5050692;28;20037;-70
2023/03/24 01:34:03;;;;;;;18.55;8.57;;;10.20;99.90;;;;;;5053003;28;20027;-72
2023/03/24 01:36:29;;;;;;;27.30;9.07;;;10.20;99.90;;;;;;5052929;28;20067;-70
2023/03/24 01:38:57;;;;;;;18.13;8.45;;;10.20;99.90;;;;;;5051852;28;20025;-70
2023/03/24 01:41:23;;;;;;;21.90;8.10;;;10.20;99.90;;;;;;5051751;28;20032;-70
2023/03/24 01:43:48;;;;;;;24.75;9.27;;;10.20;99.90;;;;;;5051634;28;20021;-70
2023/03/24 01:46:22;;;;;;;21.58;8.60;;;10.20;99.90;;;;;;5051596;28;20036;-70
2023/03/24 01:48:59;;;;;;;17.40;8.48;;;10.30;99.90;;;;;;5052825;28;20044;-73
2023/03/24 01:51:38;;;;;;;27.08;9.20;;;10.20;99.90;;;;;;5052161;28;20035;-72
2023/03/24 01:54:13;;;;;;;23.92;8.98;;;10.20;99.90;;;;;;5052590;28;20037;-69
2023/03/24 01:56:42;;;;;;;19.45;8.98;;;10.30;99.90;;;;;;5052312;28;20038;-69
2023/03/24 01:59:14;;;;;;;23.55;8.73;;;10.30;99.90;;;;;;5052566;28;20028;-71
2023/03/24 02:01:40;;;;;;;21.88;9.32;;;10.20;99.90;;;;;;5051985;28;20053;-70
2023/03/24 02:04:07;;;;;;;30.60;11.30;;;10.30;99.90;;;;;;5052026;28;20017;-70
2023/03/24 02:06:35;;;;;;;26.23;9.73;;;10.20;99.90;;;;;;5052540;28;20049;-69
2023/03/24 02:09:01;;;;;;;22.50;9.73;;;10.30;99.90;;;;;;5053165;28;20025;-71
2023/03/24 02:11:30;;;;;;;25.10;10.48;;;10.20;99.90;;;;;;5051875;28;20025;-71
2023/03/24 02:13:56;;;;;;;24.42;9.93;;;10.20;99.90;;;;;;5053228;28;20033;-70
2023/03/24 02:16:40;;;;;;;30.67;12.00;;;10.30;99.90;;;;;;5052819;28;20055;-70
2023/03/24 02:19:37;;;;;;;28.85;11.48;;;10.30;99.90;;;;;;5051800;28;20132;-69
2023/03/24 02:22:25;;;;;;;25.75;10.35;;;10.30;99.90;;;;;;5051867;28;20542;-71
2023/03/24 02:25:16;;;;;;;23.95;10.55;;;10.30;99.90;;;;;;5052102;28;20025;-68
2023/03/24 02:28:01;;;;;;;27.73;11.45;;;10.30;99.90;;;;;;5052699;28;20055;-69
2023/03/24 02:30:45;;;;;;;27.45;11.18;;;10.30;99.90;;;;;;5051517;28;20385;-70
2023/03/24 02:33:57;;;;;;;25.15;11.10;;;10.30;99.90;;;;;;5051121;28;20036;-71
2023/03/24 02:36:32;;;;;;;28.63;11.73;;;10.30;99.90;;;;;;5052107;28;20041;-70
2023/03/24 02:39:41;;;;;;;25.67;11.60;;;10.30;99.90;;;;;;5052478;28;20029;-69
2023/03/24 02:42:44;;;;;;;35.15;12.70;;;10.30;99.90;;;;;;5051979;28;20497;-72
2023/03/24 02:45:16;;;;;;;30.77;12.15;;;10.30;99.90;;;;;;5052395;28;20025;-70
2023/03/24 02:47:47;;;;;;;29.90;12.73;;;10.40;99.90;;;;;;5052097;28;20037;-69
2023/03/24 02:50:43;;;;;;;29.67;13.52;;;10.40;99.90;;;;;;5049739;28;20592;-69
2023/03/24 02:53:32;;;;;;;34.47;13.63;;;10.40;99.90;;;;;;5051230;28;20030;-70
2023/03/24 02:56:12;;;;;;;31.27;14.57;;;10.40;99.90;;;;;;5055555;28;20104;-70
2023/03/24 02:58:49;;;;;;;31.77;14.57;;;10.40;99.90;;;;;;5054866;28;20028;-70
2023/03/24 03:01:30;;;;;;;33.83;15.25;;;10.40;99.90;;;;;;5053759;28;20036;-69
2023/03/24 03:04:02;;;;;;;36.65;14.00;;;10.40;99.90;;;;;;5056598;28;20026;-70
2023/03/24 03:06:32;;;;;;;32.50;16.05;;;10.40;99.90;;;;;;5055788;28;20381;-71
2023/03/24 03:09:03;;;;;;;29.98;14.60;;;10.40;99.90;;;;;;5055300;28;20032;-70
2023/03/24 03:11:28;;;;;;;37.95;15.57;;;10.50;99.90;;;;;;5055056;28;20040;-70
2023/03/24 03:13:57;;;;;;;37.10;15.95;;;10.50;99.90;;;;;;5055891;28;20021;-71
2023/03/24 03:16:27;;;;;;;36.13;15.93;;;10.50;99.90;;;;;;5056333;28;20083;-73
2023/03/24 03:19:03;;;;;;;34.55;16.20;;;10.50;99.90;;;;;;5056037;28;20021;-74
2023/03/24 03:21:35;;;;;;;28.48;14.35;;;10.50;99.90;;;;;;5054135;28;20018;-70
2023/03/24 03:24:08;;;;;;;37.55;16.55;;;10.50;99.90;;;;;;5055247;28;20025;-70
2023/03/24 03:26:35;;;;;;;32.88;16.70;;;10.50;99.90;;;;;;5054602;28;20040;-70
2023/03/24 03:29:08;;;;;;;32.13;16.20;;;10.60;99.90;;;;;;5054691;28;20052;-73
2023/03/24 03:31:40;;;;;;;29.63;14.98;;;10.60;99.90;;;;;;5052774;28;20022;-71
2023/03/24 03:34:19;;;;;;;38.95;17.30;;;10.60;99.90;;;;;;5054981;28;20449;-71
2023/03/24 03:37:06;;;;;;;41.60;18.70;;;10.60;99.90;;;;;;5055523;28;20089;-69
2023/03/24 03:39:39;;;;;;;31.90;15.20;;;10.60;99.90;;;;;;5055164;28;20051;-70
2023/03/24 03:42:05;;;;;;;40.45;19.65;;;10.60;99.90;;;;;;5055416;28;20025;-70
2023/03/24 03:44:31;;;;;;;40.25;19.20;;;10.60;99.90;;;;;;5055107;28;20032;-72
2023/03/24 03:46:57;;;;;;;32.47;17.60;;;10.70;99.90;;;;;;5053786;28;20048;-72
2023/03/24 03:49:24;;;;;;;37.50;17.30;;;10.70;99.90;;;;;;5055453;28;20021;-69
2023/03/24 03:51:51;;;;;;;43.45;21.33;;;10.70;99.90;;;;;;5055554;28;20025;-70
2023/03/24 03:54:18;;;;;;;40.13;21.40;;;10.70;99.90;;;;;;5055076;28;20032;-70
2023/03/24 03:56:45;;;;;;;37.83;18.02;;;10.70;99.90;;;;;;5053588;28;20051;-72
2023/03/24 03:59:28;;;;;;;40.70;20.88;;;10.70;99.90;;;;;;5053194;28;20051;-72
2023/03/24 04:01:54;;;;;;;37.65;19.08;;;10.80;99.90;;;;;;5055661;28;20079;-70
2023/03/24 04:04:44;;;;;;;43.22;22.65;;;10.80;99.90;;;;;;5055125;28;20482;-70
2023/03/24 04:07:43;;;;;;;42.33;21.10;;;10.80;99.90;;;;;;5052705;28;20054;-69
2023/03/24 04:10:38;;;;;;;44.35;22.38;;;10.80;99.90;;;;;;5054088;28;20060;-70
2023/03/24 04:13:29;;;;;;;47.28;23.75;;;10.80;99.90;;;;;;5053921;28;20039;-68
2023/03/24 04:16:04;;;;;;;36.58;18.88;;;10.80;99.90;;;;;;5054790;28;20036;-70
2023/03/24 04:18:45;;;;;;;46.63;22.50;;;10.90;99.90;;;;;;5053728;28;20064;-70
2023/03/24 04:21:50;;;;;;;45.92;22.98;;;10.90;99.90;;;;;;5053893;28;20025;-70
2023/03/24 04:24:36;;;;;;;38.05;19.00;;;10.90;99.90;;;;;;5054119;28;20024;-71
2023/03/24 04:27:13;;;;;;;45.28;21.98;;;10.90;99.90;;;;;;5053715;28;20028;-70
2023/03/24 04:30:01;;;;;;;46.00;22.98;;;10.90;99.90;;;;;;5054275;28;20021;-69
2023/03/24 04:32:48;;;;;;;40.80;22.35;;;10.90;99.90;;;;;;5052867;28;20037;-69
2023/03/24 04:35:43;;;;;;;47.20;23.10;;;10.90;99.90;;;;;;5053370;28;20020;-68
2023/03/24 04:38:10;;;;;;;;;;;11.00;99.90;;;;;;5051987;28;20064;-69
2023/03/24 04:40:40;;;;;;;43.50;22.88;;;10.90;99.90;;;;;;5053596;28;19912;-70
2023/03/24 04:43:09;;;;;;;42.92;23.67;;;11.00;99.90;;;;;;5053825;28;20458;-73
2023/03/24 04:45:35;;;;;;;40.15;20.33;;;11.00;99.90;;;;;;5051964;28;20033;-69
2023/03/24 04:48:03;;;;;;;45.50;24.00;;;11.00;99.90;;;;;;5054791;28;20032;-68
2023/03/24 04:50:37;;;;;;;41.33;22.38;;;11.00;99.90;;;;;;5053599;28;20014;-74
2023/03/24 04:53:04;;;;;;;40.38;21.20;;;11.00;99.90;;;;;;5054110;28;20052;-73
2023/03/24 04:55:31;;;;;;;39.83;22.63;;;11.00;99.90;;;;;;5053075;28;20029;-70
2023/03/24 04:57:56;;;;;;;44.10;23.83;;;11.00;99.90;;;;;;5054272;28;20045;-73
2023/03/24 05:00:23;;;;;;;41.92;22.88;;;11.00;99.90;;;;;;5054390;28;20097;-72
2023/03/24 05:02:51;;;;;;;46.50;22.92;;;11.00;99.90;;;;;;5052056;28;20109;-72
2023/03/24 05:05:17;;;;;;;42.33;23.92;;;11.10;99.90;;;;;;5052067;28;20044;-71
2023/03/24 05:07:43;;;;;;;38.72;22.10;;;11.10;99.90;;;;;;5053612;28;20565;-71
2023/03/24 05:10:10;;;;;;;40.47;22.80;;;11.10;99.90;;;;;;5051001;28;20067;-73
2023/03/24 05:12:35;;;;;;;43.10;22.75;;;11.10;99.90;;;;;;5053622;28;20029;-72
2023/03/24 05:15:01;;;;;;;36.47;20.55;;;11.10;99.90;;;;;;5051707;28;20371;-71
2023/03/24 05:17:27;;;;;;;36.13;20.38;;;11.10;99.90;;;;;;5052501;28;20474;-72
2023/03/24 05:19:52;;;;;;;44.53;23.50;;;11.10;99.90;;;;;;5053963;28;20037;-71
2023/03/24 05:22:18;;;;;;;44.95;23.80;;;11.20;99.90;;;;;;5052875;28;20031;-73
2023/03/24 05:24:43;;;;;;;40.60;22.98;;;11.20;99.90;;;;;;5052299;28;20017;-71
2023/03/24 05:27:09;;;;;;;39.63;23.05;;;11.20;99.90;;;;;;5052588;28;20025;-74
2023/03/24 05:29:34;;;;;;;44.38;25.92;;;11.20;99.90;;;;;;5053575;28;20028;-70
2023/03/24 05:32:00;;;;;;;44.83;24.77;;;11.20;99.90;;;;;;5053298;28;20489;-68
2023/03/24 05:34:25;;;;;;;42.45;22.80;;;11.20;99.90;;;;;;5053375;28;20029;-72
2023/03/24 05:36:51;;;;;;;42.38;22.67;;;11.20;99.90;;;;;;5053401;28;20042;-74
2023/03/24 05:39:17;;;;;;;38.17;23.63;;;11.30;99.90;;;;;;5053225;28;20025;-70
2023/03/24 05:41:42;;;;;;;42.58;24.55;;;11.20;99.90;;;;;;5052773;28;20036;-70
2023/03/24 05:44:08;;;;;;;44.80;25.05;;;11.20;99.90;;;;;;5053328;28;20033;-71
2023/03/24 05:46:33;;;;;;;33.03;19.13;;;11.20;99.90;;;;;;5053001;28;20054;-74
2023/03/24 05:48:59;;;;;;;44.42;24.73;;;11.30;99.90;;;;;;5053134;28;20021;-71
2023/03/24 05:51:25;;;;;;;46.20;24.52;;;11.30;99.90;;;;;;5052784;28;20018;-70
2023/03/24 05:53:51;;;;;;;44.08;23.80;;;11.20;99.90;;;;;;5050490;28;20650;-69
2023/03/24 05:56:16;;;;;;;39.75;24.15;;;11.30;99.90;;;;;;5052238;28;20048;-70
2023/03/24 05:58:43;;;;;;;32.72;20.45;;;11.30;99.90;;;;;;5052357;28;20548;-72
2023/03/24 06:01:10;;;;;;;36.95;21.55;;;11.30;99.90;;;;;;5052724;28;20068;-68
2023/03/24 06:03:37;;;;;;;35.03;19.77;;;11.30;99.90;;;;;;5052042;28;20013;-70
2023/03/24 06:06:07;;;;;;;34.40;20.50;;;11.30;99.90;;;;;;5052596;28;20100;-68
2023/03/24 06:08:34;;;;;;;29.15;17.45;;;11.30;99.90;;;;;;5051919;28;20417;-71
2023/03/24 06:11:03;;;;;;;23.13;13.55;;;11.30;99.90;;;;;;5052446;28;20045;-69
2023/03/24 06:13:31;;;;;;;17.55;11.50;;;11.20;99.90;;;;;;5052374;28;20040;-71
2023/03/24 06:15:57;;;;;;;20.30;11.75;;;11.20;99.90;;;;;;5052010;28;20048;-70
2023/03/24 06:18:25;;;;;;;14.85;9.40;;;11.20;99.90;;;;;;5043582;28;20036;-71
2023/03/24 06:20:55;;;;;;;14.00;8.75;;;11.10;99.90;;;;;;5038195;28;20036;-69
2023/03/24 06:23:27;;;;;;;18.05;5.80;;;11.10;99.90;;;;;;5043554;28;20022;-70
2023/03/24 06:25:54;;;;;;;9.35;5.38;;;11.00;99.90;;;;;;5050214;28;20048;-70
2023/03/24 06:28:20;;;;;;;14.73;4.88;;;11.00;99.90;;;;;;5050258;28;20029;-70
2023/03/24 06:30:47;;;;;;;12.32;4.80;;;11.00;99.90;;;;;;5049958;28;20025;-69
2023/03/24 06:33:13;;;;;;;7.78;3.17;;;11.00;99.90;;;;;;5049584;28;20493;-68
2023/03/24 06:35:40;;;;;;;6.72;2.60;;;10.90;99.90;;;;;;5051165;28;20037;-74
2023/03/24 06:38:06;;;;;;;8.32;2.90;;;10.80;99.90;;;;;;5046133;28;20044;-69
2023/03/24 06:40:32;;;;;;;8.52;2.22;;;10.80;99.90;;;;;;5049484;28;20025;-72
2023/03/24 06:42:58;;;;;;;5.63;2.00;;;10.70;99.90;;;;;;5051143;28;20025;-70
2023/03/24 06:45:24;;;;;;;9.13;2.28;;;10.70;99.90;;;;;;5052256;28;20109;-70
2023/03/24 06:47:56;;;;;;;12.52;3.22;;;10.60;99.90;;;;;;5043434;28;20051;-73
2023/03/24 06:50:25;;;;;;;6.30;2.05;;;10.70;99.90;;;;;;5045965;28;20523;-71
2023/03/24 06:52:52;;;;;;;6.10;2.10;;;10.60;99.90;;;;;;5050798;28;20030;-66
2023/03/24 06:55:18;;;;;;;12.77;2.45;;;10.60;99.90;;;;;;5051017;28;20048;-69
2023/03/24 06:57:44;;;;;;;8.80;2.28;;;10.60;99.90;;;;;;5051836;28;20037;-71
2023/03/24 07:00:10;;;;;;;6.75;2.08;;;10.50;99.90;;;;;;5050530;28;20036;-68
2023/03/24 07:02:37;;;;;;;9.38;2.10;;;10.50;99.90;;;;;;5051868;28;20380;-69
2023/03/24 07:05:05;;;;;;;12.38;2.80;;;10.50;99.90;;;;;;5050291;28;20017;-69
2023/03/24 07:07:32;;;;;;;11.77;2.40;;;10.50;99.90;;;;;;5050299;28;20049;-72
2023/03/24 07:09:58;;;;;;;9.32;2.40;;;10.50;99.90;;;;;;5052233;28;20104;-69
2023/03/24 07:12:24;;;;;;;6.82;2.22;;;10.50;99.90;;;;;;5052222;28;20029;-70
2023/03/24 07:14:50;;;;;;;10.70;2.75;;;10.50;99.90;;;;;;5052011;28;20032;-69
2023/03/24 07:17:16;;;;;;;6.57;2.45;;;10.60;99.90;;;;;;5051668;28;20083;-70
2023/03/24 07:19:43;;;;;;;5.43;1.85;;;10.60;99.90;;;;;;5051614;28;20029;-69
2023/03/24 07:22:09;;;;;;;8.95;2.55;;;10.60;99.90;;;;;;5050585;28;20109;-70
2023/03/24 07:24:34;;;;;;;7.88;2.20;;;10.70;99.90;;;;;;5051653;28;20033;-71
2023/03/24 07:27:01;;;;;;;9.32;2.40;;;10.80;99.90;;;;;;5051463;28;20017;-70
2023/03/24 07:29:26;;;;;;;8.18;2.70;;;10.80;99.90;;;;;;5050969;28;20029;-71
2023/03/24 07:31:53;;;;;;;13.73;3.03;;;10.80;99.90;;;;;;5052111;28;20052;-71
2023/03/24 07:34:20;;;;;;;6.47;2.55;;;10.90;99.90;;;;;;5051783;28;20021;-70
2023/03/24 07:36:45;;;;;;;8.68;2.55;;;10.90;99.90;;;;;;5050533;28;20128;-70
2023/03/24 07:39:12;;;;;;;9.88;2.45;;;11.00;99.90;;;;;;5046164;28;20466;-67
2023/03/24 07:41:37;;;;;;;8.10;2.80;;;11.00;99.90;;;;;;5051481;28;20093;-70
2023/03/24 07:44:03;;;;;;;9.30;3.03;;;11.10;99.90;;;;;;5051665;28;20052;-72
2023/03/24 07:46:28;;;;;;;12.38;2.80;;;11.10;99.90;;;;;;5050856;28;20026;-68
2023/03/24 07:48:54;;;;;;;14.88;3.22;;;11.30;99.90;;;;;;5052003;28;20427;-72
2023/03/24 07:51:20;;;;;;;11.18;2.80;;;11.20;99.90;;;;;;5053195;28;20040;-70
2023/03/24 07:53:46;;;;;;;15.77;2.97;;;11.20;99.90;;;;;;5054198;28;20035;-70
2023/03/24 07:56:13;;;;;;;16.08;2.80;;;11.20;99.90;;;;;;5052924;28;20383;-69
2023/03/24 07:58:38;;;;;;;11.45;2.75;;;11.30;99.90;;;;;;5053298;28;20024;-72
2023/03/24 08:01:10;;;;;;;14.65;2.42;;;11.20;99.90;;;;;;5054435;28;20048;-72
2023/03/24 08:03:36;;;;;;;14.60;3.20;;;11.20;99.90;;;;;;5052776;28;20025;-70
2023/03/24 08:06:06;;;;;;;16.10;3.05;;;11.30;99.90;;;;;;5053620;28;20056;-71
2023/03/24 08:08:32;;;;;;;15.63;2.70;;;11.40;99.90;;;;;;5054126;28;20049;-73
2023/03/24 08:10:58;;;;;;;14.23;2.42;;;11.40;99.90;;;;;;5053171;28;20017;-71
2023/03/24 08:13:24;;;;;;;13.02;2.90;;;11.40;99.90;;;;;;5054895;28;20488;-70
2023/03/24 08:15:52;;;;;;;13.10;2.63;;;11.30;99.90;;;;;;5054996;28;20026;-76
2023/03/24 08:18:19;;;;;;;14.93;2.95;;;11.30;99.90;;;;;;5054441;28;20096;-70
2023/03/24 08:20:45;;;;;;;11.48;2.55;;;11.20;99.90;;;;;;5052595;28;20025;-70
2023/03/24 08:23:11;;;;;;;11.30;2.80;;;11.10;99.90;;;;;;5054095;28;20073;-72
2023/03/24 08:25:37;;;;;;;16.33;2.75;;;11.10;99.90;;;;;;5053971;28;20526;-71
2023/03/24 08:28:03;;;;;;;12.88;2.67;;;11.10;99.90;;;;;;5054159;28;20029;-70
2023/03/24 08:30:29;;;;;;;14.25;2.90;;;11.10;99.90;;;;;;5052489;28;20034;-69
2023/03/24 08:32:58;;;;;;;12.68;2.67;;;11.10;99.90;;;;;;5052448;28;20105;-70
2023/03/24 08:35:27;;;;;;;12.82;2.50;;;11.10;99.90;;;;;;5054007;28;20087;-70
2023/03/24 08:37:53;;;;;;;9.70;2.10;;;11.20;99.90;;;;;;5053951;28;20059;-70
2023/03/24 08:40:22;;;;;;;12.98;2.80;;;11.30;99.90;;;;;;5054014;28;20039;-70
2023/03/24 08:42:54;;;;;;;10.55;2.40;;;11.30;99.90;;;;;;5053075;28;20386;-71
2023/03/24 08:45:22;;;;;;;12.75;2.15;;;11.40;99.90;;;;;;5054035;28;20121;-71
2023/03/24 08:47:50;;;;;;;15.10;2.25;;;11.50;99.90;;;;;;5053692;28;20059;-70
2023/03/24 08:50:17;;;;;;;16.52;2.85;;;11.50;99.90;;;;;;5053443;28;20021;-71
2023/03/24 08:52:46;;;;;;;11.48;2.50;;;11.50;99.90;;;;;;5053291;28;20036;-69
2023/03/24 08:55:15;;;;;;;9.48;2.40;;;11.40;99.90;;;;;;5048708;28;20017;-71
2023/03/24 08:57:41;;;;;;;13.13;2.28;;;11.30;99.90;;;;;;5048838;28;20041;-69
2023/03/24 09:00:14;;;;;;;9.85;2.55;;;11.40;99.90;;;;;;5050690;28;20056;-71
2023/03/24 09:02:44;;;;;;;14.57;2.50;;;11.40;99.90;;;;;;5053959;28;20017;-69
2023/03/24 09:05:10;;;;;;;10.60;2.92;;;11.40;99.90;;;;;;5052748;28;20021;-70
2023/03/24 09:07:36;;;;;;;13.20;2.47;;;11.30;99.90;;;;;;5049923;28;20041;-70
2023/03/24 09:10:02;;;;;;;14.73;2.35;;;11.30;99.90;;;;;;5047778;28;20033;-70
2023/03/24 09:12:27;;;;;;;13.10;2.35;;;11.30;99.90;;;;;;5053819;28;20029;-71
2023/03/24 09:14:53;;;;;;;17.48;3.15;;;11.30;99.90;;;;;;5052499;28;20026;-72
2023/03/24 09:17:19;;;;;;;12.38;2.65;;;11.30;99.90;;;;;;5052413;28;20032;-72
2023/03/24 09:19:46;;;;;;;18.50;3.10;;;11.40;99.90;;;;;;5050978;28;20430;-69
2023/03/24 09:22:11;;;;;;;17.40;2.47;;;11.50;99.90;;;;;;5052434;28;20048;-70
2023/03/24 09:24:37;;;;;;;9.30;1.95;;;11.50;99.90;;;;;;5053057;28;20026;-71
2023/03/24 09:27:03;;;;;;;11.77;2.50;;;11.70;99.90;;;;;;5053525;28;20080;-73
2023/03/24 09:29:29;;;;;;;16.20;2.45;;;11.80;99.90;;;;;;5052831;28;20059;-72
2023/03/24 09:31:56;;;;;;;10.52;2.30;;;11.90;99.90;;;;;;5051361;28;20052;-71
2023/03/24 09:34:23;;;;;;;16.15;2.45;;;12.00;99.90;;;;;;5049968;28;20021;-71
2023/03/24 09:36:49;;;;;;;10.57;2.30;;;12.00;99.90;;;;;;5053674;28;20132;-70
2023/03/24 09:39:15;;;;;;;13.98;2.78;;;12.10;99.90;;;;;;5053083;28;20084;-72
2023/03/24 09:41:43;;;;;;;8.55;1.77;;;12.10;99.90;;;;;;5051920;28;20102;-72
2023/03/24 09:44:24;;;;;;;9.98;2.35;;;12.10;99.90;;;;;;5051332;28;20032;-70
2023/03/24 09:47:40;;;;;;;15.52;3.20;;;11.90;99.90;;;;;;5051252;28;20545;-67
2023/03/24 09:50:28;;;;;;;10.13;2.35;;;11.80;99.90;;;;;;5038380;28;20160;-73
2023/03/24 09:53:29;;;;;;;8.93;1.98;;;11.70;99.90;;;;;;5049102;28;20077;-74
2023/03/24 09:55:55;;;;;;;14.70;1.95;;;11.60;99.90;;;;;;5067052;28;20033;-71
2023/03/24 09:58:27;;;;;;;16.45;2.97;;;11.50;99.90;;;;;;5049497;28;20041;-71
2023/03/24 10:00:52;;;;;;;17.63;2.97;;;11.50;99.90;;;;;;5041758;28;20104;-73
2023/03/24 10:03:22;;;;;;;14.68;2.33;;;11.40;99.90;;;;;;5050315;28;20056;-72
2023/03/24 10:06:03;;;;;;;19.10;3.28;;;11.40;99.90;;;;;;5044733;28;20053;-76
2023/03/24 10:08:45;;;;;;;15.38;3.30;;;11.40;99.90;;;;;;5046504;28;20129;-75
2023/03/24 10:11:26;;;;;;;14.23;2.72;;;11.40;99.90;;;;;;5050238;28;20479;-72
2023/03/24 10:13:51;;;;;;;17.40;2.95;;;11.40;99.90;;;;;;5050147;28;20568;-69
2023/03/24 10:16:35;;;;;;;22.92;3.50;;;11.40;99.90;;;;;;5051241;28;20030;-69
2023/03/24 10:19:07;;;;;;;16.77;2.67;;;11.40;99.90;;;;;;5049472;28;20092;-68
2023/03/24 10:21:37;;;;;;;20.08;2.97;;;11.40;99.90;;;;;;5051369;28;20085;-67
2023/03/24 10:24:12;;;;;;;11.85;3.55;;;11.40;99.90;;;;;;5051727;28;20811;-72
2023/03/24 10:27:02;;;;;;;19.35;3.03;;;11.40;99.90;;;;;;5051861;28;20056;-72
2023/03/24 10:29:37;;;;;;;22.90;4.15;;;11.30;99.90;;;;;;5049858;28;20016;-70
2023/03/24 10:32:13;;;;;;;12.93;3.40;;;11.30;99.90;;;;;;5052494;28;20032;-72
2023/03/24 10:34:43;;;;;;;19.70;3.40;;;11.60;99.90;;;;;;5049220;28;20411;-73
2023/03/24 10:37:11;;;;;;;17.52;3.25;;;12.00;99.90;;;;;;5051714;28;20037;-70
2023/03/24 10:39:37;;;;;;;13.63;3.30;;;12.40;99.90;;;;;;5049727;28;20021;-71
2023/03/24 10:42:03;;;;;;;19.23;3.53;;;12.70;99.90;;;;;;5049924;28;20036;-72
2023/03/24 10:44:29;;;;;;;12.65;2.30;;;13.10;99.90;;;;;;5050713;28;20022;-71
2023/03/24 10:47:01;;;;;;;15.60;3.35;;;13.30;99.90;;;;;;5052883;28;20017;-71
2023/03/24 10:49:26;;;;;;;14.63;3.05;;;13.60;99.90;;;;;;5051031;28;20025;-70
2023/03/24 10:52:00;;;;;;;14.52;2.63;;;14.00;99.90;;;;;;5049663;28;20025;-69
2023/03/24 10:54:27;;;;;;;15.00;2.70;;;14.20;99.90;;;;;;5049331;28;20081;-68
2023/03/24 10:56:59;;;;;;;10.75;2.67;;;14.30;99.90;;;;;;5048220;28;20052;-69
2023/03/24 10:59:39;;;;;;;13.40;2.45;;;14.30;99.90;;;;;;5043700;28;20025;-71
2023/03/24 11:02:22;;;;;;;12.50;2.22;;;14.50;99.90;;;;;;5049012;28;20704;-70
2023/03/24 11:05:11;;;;;;;14.75;2.60;;;14.60;99.90;;;;;;5050478;28;20032;-71
2023/03/24 11:07:40;;;;;;;12.77;2.65;;;14.70;99.90;;;;;;5048549;28;20069;-74
2023/03/24 11:10:08;;;;;;;16.85;3.00;;;14.80;99.90;;;;;;5051441;28;20040;-72
2023/03/24 11:12:37;;;;;;;15.73;2.83;;;14.80;99.90;;;;;;5047774;28;20025;-69
2023/03/24 11:15:22;;;;;;;16.70;2.63;;;15.00;99.90;;;;;;5051536;28;20018;-69
2023/03/24 11:17:52;;;;;;;;;;;15.10;99.90;;;;;;5046625;28;20120;-72
2023/03/24 11:20:31;;;;;;;16.77;3.05;;;15.20;99.90;;;;;;5050011;28;19917;-72
2023/03/24 11:23:15;;;;;;;18.52;3.38;;;15.30;99.90;;;;;;5056213;28;20440;-72
2023/03/24 11:25:45;;;;;;;13.33;3.17;;;15.40;99.90;;;;;;5052523;28;20021;-70
2023/03/24 11:28:23;;;;;;;15.15;2.70;;;15.40;99.90;;;;;;5054304;28;20089;-73
2023/03/24 11:30:51;;;;;;;16.08;3.40;;;15.60;99.90;;;;;;5048909;28;20036;-72
2023/03/24 11:33:25;;;;;;;10.18;2.78;;;15.70;99.90;;;;;;5053865;28;20037;-70
2023/03/24 11:35:51;;;;;;;16.75;2.80;;;15.70;99.90;;;;;;5050128;28;20035;-69
2023/03/24 11:38:26;;;;;;;18.20;2.55;;;15.70;99.90;;;;;;5053659;28;20038;-73
2023/03/24 11:41:03;;;;;;;16.85;2.80;;;15.90;99.90;;;;;;5051335;28;20038;-69
2023/03/24 11:43:29;;;;;;;11.25;2.50;;;16.00;99.90;;;;;;5054356;28;20017;-73
2023/03/24 11:46:12;;;;;;;11.15;2.42;;;16.10;99.90;;;;;;5044123;28;20045;-78
2023/03/24 11:48:49;;;;;;;12.10;2.67;;;16.00;99.90;;;;;;5049397;28;20033;-72
2023/03/24 11:51:31;;;;;;;13.82;2.75;;;16.10;99.90;;;;;;5049967;28;20036;-73
2023/03/24 11:53:58;;;;;;;11.27;2.65;;;15.90;99.90;;;;;;5052009;28;20025;-71
2023/03/24 11:56:32;;;;;;;19.77;3.20;;;15.70;99.90;;;;;;5049816;28;20038;-71
2023/03/24 11:59:28;;;;;;;11.45;2.42;;;15.50;99.90;;;;;;5050320;28;20029;-72
2023/03/24 12:02:06;;;;;;;10.52;2.67;;;15.50;99.90;;;;;;5051440;28;20034;-72
2023/03/24 12:04:48;;;;;;;13.80;2.15;;;15.70;99.90;;;;;;5051421;28;20029;-72
2023/03/24 12:07:32;;;;;;;14.13;2.83;;;15.80;99.90;;;;;;5052178;28;20061;-75
2023/03/24 12:10:04;;;;;;;15.18;2.58;;;15.70;99.90;;;;;;5052609;28;20026;-75
2023/03/24 12:12:48;;;;;;;11.48;2.42;;;15.70;99.90;;;;;;5050477;28;20074;-74
2023/03/24 12:15:50;;;;;;;14.25;2.55;;;15.40;99.90;;;;;;5055268;28;20426;-72
2023/03/24 12:18:36;;;;;;;12.18;2.78;;;15.10;99.90;;;;;;5054221;28;20105;-71
2023/03/24 12:21:03;;;;;;;14.73;2.88;;;15.00;99.90;;;;;;5053079;28;20029;-73
2023/03/24 12:23:56;;;;;;;15.15;3.20;;;15.40;99.90;;;;;;5053045;28;20029;-72
2023/03/24 12:26:33;;;;;;;13.43;2.35;;;15.70;99.90;;;;;;5048356;28;20053;-73
2023/03/24 12:29:05;;;;;;;13.15;2.90;;;15.90;99.90;;;;;;5052225;28;20021;-71
2023/03/24 12:31:55;;;;;;;15.02;2.47;;;16.20;99.90;;;;;;5052911;28;20103;-75
2023/03/24 12:34:45;;;;;;;12.93;2.80;;;16.40;99.90;;;;;;5053290;28;20025;-72
2023/03/24 12:37:32;;;;;;;8.40;2.17;;;15.90;99.90;;;;;;5053085;28;20041;-72
2023/03/24 12:40:10;;;;;;;11.88;2.53;;;15.80;99.90;;;;;;5052323;28;20021;-70
2023/03/24 12:42:46;;;;;;;9.98;2.50;;;16.10;99.90;;;;;;5047895;28;20049;-72
2023/03/24 12:45:31;;;;;;;13.10;2.33;;;16.20;99.90;;;;;;5051728;28;20021;-73
2023/03/24 12:48:03;;;;;;;10.93;1.95;;;16.50;99.90;;;;;;5050941;28;20037;-69
2023/03/24 12:51:12;;;;;;;10.90;2.13;;;16.80;99.90;;;;;;5050111;28;20037;-71
2023/03/24 12:53:53;;;;;;;7.05;1.98;;;16.90;99.90;;;;;;5064506;28;20029;-72
2023/03/24 12:56:40;;;;;;;9.85;1.90;;;17.30;99.90;;;;;;5049600;28;20025;-72
2023/03/24 12:59:11;;;;;;;9.75;2.15;;;17.70;99.90;;;;;;5044810;28;20462;-75
2023/03/24 13:02:22;;;;;;;12.70;2.33;;;17.70;99.90;;;;;;5061805;28;20047;-72
2023/03/24 13:04:52;;;;;;;8.25;1.83;;;17.80;99.90;;;;;;5008784;28;20030;-72